Time;durP1;ratioP1;P1;durP2;ratioP2;P2;SDS_P1;SDS_P2;PMS_P1;PMS_P2;Temp;Humidity;BMP_temperature;BMP_pressure;BME280_temperature;BME280_humidity;BME280_pressure;Samples;Min_cycle;Max_cycle;Signal;HPM_P1;HPM_P2
2022/02/14 00:01:36;;;;;;;;;;;;;;;17.06;43.67;98007.31;4416545;32;19963;-69
2022/02/14 00:04:01;;;;;;;;;;;;;;;17.19;43.59;98010.13;4415519;32;19957;-69
2022/02/14 00:06:27;;;;;;;;;;;;;;;17.35;43.75;98018.31;4414820;32;19949;-69
2022/02/14 00:08:52;;;;;;;;;;;;;;;17.22;43.35;98021.19;4418228;32;19961;-69
2022/02/14 00:11:17;;;;;;;;;;;;;;;17.40;42.99;98020.25;4418833;32;20028;-69
2022/02/14 00:13:43;;;;;;;;;;;;;;;17.46;43.12;98025.88;4416520;32;20028;-69
2022/02/14 00:16:09;;;;;;;;;;;;;;;17.37;43.33;98020.59;4416781;32;19976;-69
2022/02/14 00:18:35;;;;;;;;;;;;;;;17.46;42.80;98020.91;4416711;32;20037;-71
2022/02/14 00:31:06;;;;;;;;;;;;;;;17.44;42.87;98022.78;4418458;32;20448;-69
2022/02/14 00:33:32;;;;;;;;;;;;;;;17.17;43.14;98029.81;4419541;32;19993;-69
2022/02/14 00:35:57;;;;;;;;;;;;;;;17.12;42.72;98022.94;4415816;32;20435;-69
2022/02/14 00:38:22;;;;;;;;;;;;;;;17.41;42.44;98026.72;4418772;32;20004;-69
2022/02/14 00:40:48;;;;;;;;;;;;;;;17.47;41.92;98021.69;4419615;32;20009;-69
2022/02/14 00:43:14;;;;;;;;;;;;;;;17.15;42.63;98021.09;4420192;32;20279;-69
2022/02/14 01:06:09;;;;;;;;;;;;;;;17.08;43.07;98021.72;4416597;32;20026;-70
2022/02/14 01:08:35;;;;;;;;;;;;;;;16.86;43.22;98014.44;4416667;32;19957;-70
2022/02/14 01:11:00;;;;;;;;;;;;;;;16.93;43.19;98015.84;4415847;32;20005;-70
2022/02/14 01:13:26;;;;;;;;;;;;;;;17.14;43.07;98013.84;4418448;32;19984;-70
2022/02/14 01:15:51;;;;;;;;;;;;;;;17.03;43.29;98023.38;4418979;32;20296;-70
2022/02/14 01:18:17;;;;;;;;;;;;;;;17.10;42.80;98014.19;4417323;32;20003;-70
2022/02/14 01:20:42;;;;;;;;;;;;;;;16.93;43.16;98013.78;4415273;32;21073;-70
2022/02/14 01:23:08;;;;;;;;;;;;;;;17.04;43.13;98013.56;4417327;32;20332;-70
2022/02/14 01:25:33;;;;;;;;;;;;;;;16.94;43.57;98015.28;4415908;32;20016;-70
2022/02/14 01:27:59;;;;;;;;;;;;;;;16.76;43.57;98004.84;4417895;32;20484;-70
2022/02/14 01:30:24;;;;;;;;;;;;;;;17.17;43.14;98007.84;4418877;32;19997;-70
2022/02/14 01:33:02;;;;;;;;;;;;;;;17.12;43.14;98007.97;4420268;32;20008;-70
2022/02/14 01:35:28;;;;;;;;;;;;;;;16.80;43.40;98005.25;4419208;32;20008;-70
2022/02/14 01:37:54;;;;;;;;;;;;;;;16.67;43.38;98002.44;4418353;32;20487;-70
2022/02/14 01:40:20;;;;;;;;;;;;;;;16.90;43.46;98005.56;4418139;32;20464;-70
2022/02/14 01:42:46;;;;;;;;;;;;;;;16.63;43.40;98004.06;4417203;32;20047;-70
2022/02/14 01:45:12;;;;;;;;;;;;;;;16.79;43.36;98000.91;4406073;32;20316;-70
2022/02/14 01:54:41;;;;;;;;;;;;;;;16.52;43.79;97998.59;4417649;32;19960;-70
2022/02/14 01:57:26;;;;;;;;;;;;;;;16.64;43.43;97994.22;4416249;32;20043;-70
2022/02/14 01:59:52;;;;;;;;;;;;;;;16.46;44.24;97995.09;4416623;32;19972;-70
2022/02/14 02:02:18;;;;;;;;;;;;;;;16.92;42.86;98006.56;4417255;32;20001;-70
2022/02/14 02:04:44;;;;;;;;;;;;;;;16.95;43.07;98005.47;4421248;32;19977;-70
2022/02/14 02:21:30;;;;;;;;;;;;;;;16.82;43.18;97994.13;4413827;32;21464;-71
2022/02/14 02:24:00;;;;;;;;;;;;;;;17.04;43.00;97995.72;4416462;32;19949;-70
2022/02/14 02:26:30;;;;;;;;;;;;;;;16.96;43.33;98001.31;4415344;32;20007;-71
2022/02/14 02:28:55;;;;;;;;;;;;;;;16.89;43.85;98006.88;4414525;32;20355;-71
2022/02/14 02:38:19;;;;;;;;;;;;;;;16.53;44.12;98006.56;4412873;32;19980;-71
2022/02/14 02:40:45;;;;;;;;;;;;;;;16.73;43.66;98008.78;4418209;32;19997;-71
2022/02/14 02:43:11;;;;;;;;;;;;;;;16.57;43.57;98012.66;4415270;32;19962;-70
2022/02/14 02:45:37;;;;;;;;;;;;;;;16.34;43.85;97997.34;4416802;32;20013;-71
2022/02/14 02:48:02;;;;;;;;;;;;;;;16.29;43.35;98001.03;4415855;32;19997;-71
2022/02/14 02:50:28;;;;;;;;;;;;;;;15.87;43.90;98007.72;4405663;32;20402;-71
2022/02/14 02:52:53;;;;;;;;;;;;;;;16.25;42.94;98005.50;4419952;32;20018;-70
2022/02/14 02:55:19;;;;;;;;;;;;;;;15.39;43.85;98002.25;4421703;32;19960;-70
2022/02/14 02:57:45;;;;;;;;;;;;;;;15.72;43.31;98013.09;4416178;32;19958;-70
2022/02/14 03:00:10;;;;;;;;;;;;;;;15.47;43.36;98011.69;4418197;32;19958;-70
2022/02/14 03:09:19;;;;;;;;;;;;;;;15.64;42.67;98010.13;4413813;32;20328;-70
2022/02/14 03:11:45;;;;;;;;;;;;;;;15.62;42.67;98009.13;4415792;32;20116;-69
2022/02/14 03:14:11;;;;;;;;;;;;;;;15.76;42.23;98008.66;4406159;32;20398;-68
2022/02/14 03:16:36;;;;;;;;;;;;;;;16.01;42.13;98011.34;4415645;32;19969;-69
2022/02/14 03:19:03;;;;;;;;;;;;;;;16.09;42.08;98001.66;4416138;32;19968;-69
2022/02/14 03:31:24;;;;;;;;;;;;;;;15.85;42.61;97998.97;4416022;32;20009;-69
2022/02/14 03:33:50;;;;;;;;;;;;;;;16.24;42.22;98001.91;4413466;32;19968;-69
2022/02/14 03:36:17;;;;;;;;;;;;;;;16.24;42.02;98001.91;4419133;32;19961;-69
2022/02/14 03:38:42;;;;;;;;;;;;;;;15.96;42.67;97998.78;4416130;32;19969;-69
2022/02/14 03:48:04;;;;;;;;;;;;;;;16.38;41.64;98000.62;4415998;32;20012;-69
2022/02/14 04:04:05;;;;;;;;;;;;;;;16.20;42.26;98015.62;4417063;32;19964;-69
2022/02/14 04:06:31;;;;;;;;;;;;;;;15.79;42.37;98012.47;4403028;32;19966;-69
2022/02/14 04:08:59;;;;;;;;;;;;;;;15.74;42.64;98007.66;4415973;32;19996;-69
2022/02/14 04:11:24;;;;;;;;;;;;;;;16.16;41.32;98001.00;4388855;32;20021;-69
2022/02/14 04:13:50;;;;;;;;;;;;;;;16.10;42.04;98002.44;4420091;32;19975;-69
2022/02/14 04:16:15;;;;;;;;;;;;;;;15.75;42.68;97995.78;4418069;32;20406;-69
2022/02/14 04:18:41;;;;;;;;;;;;;;;15.92;41.76;98004.00;4415488;32;20661;-69
2022/02/14 04:21:08;;;;;;;;;;;;;;;14.90;44.05;97983.84;4416961;32;19961;-69
2022/02/14 04:23:34;;;;;;;;;;;;;;;15.56;43.11;97999.97;4415787;32;20036;-69
2022/02/14 04:25:59;;;;;;;;;;;;;;;15.62;42.92;98012.72;4416439;32;20014;-69
2022/02/14 04:28:25;;;;;;;;;;;;;;;15.11;44.10;98004.69;4415939;32;20454;-69
2022/02/14 04:30:51;;;;;;;;;;;;;;;15.58;43.20;98009.44;4417405;32;19980;-69
2022/02/14 04:33:16;;;;;;;;;;;;;;;15.52;43.40;98016.47;4415516;32;19961;-69
2022/02/14 04:35:43;;;;;;;;;;;;;;;15.45;43.60;98011.44;4418844;32;20042;-69
2022/02/14 04:38:08;;;;;;;;;;;;;;;15.46;43.65;98015.78;4416260;32;19961;-69
2022/02/14 04:40:37;;;;;;;;;;;;;;;15.63;43.35;98014.28;4414826;32;19993;-69
2022/02/14 04:43:03;;;;;;;;;;;;;;;15.24;43.95;98013.25;4415419;32;19999;-69
2022/02/14 04:45:29;;;;;;;;;;;;;;;15.35;43.94;98016.72;4415835;32;19983;-69
2022/02/14 04:47:54;;;;;;;;;;;;;;;15.22;43.92;98025.13;4414964;32;20390;-69
2022/02/14 04:50:20;;;;;;;;;;;;;;;15.13;44.58;98019.09;4419856;32;19993;-69
2022/02/14 04:52:45;;;;;;;;;;;;;;;15.07;44.48;98026.87;4415154;32;20012;-69
2022/02/14 04:55:11;;;;;;;;;;;;;;;15.51;44.13;98032.75;4418396;32;19960;-69
2022/02/14 04:57:37;;;;;;;;;;;;;;;15.23;43.53;98028.72;4415257;32;20034;-69
2022/02/14 05:00:04;;;;;;;;;;;;;;;15.53;43.68;98040.72;4418292;32;20298;-69
2022/02/14 05:02:29;;;;;;;;;;;;;;;15.42;43.69;98038.78;4415985;32;20000;-69
2022/02/14 05:04:55;;;;;;;;;;;;;;;15.31;43.93;98041.00;4417783;32;19967;-69
2022/02/14 05:07:20;;;;;;;;;;;;;;;15.54;43.43;98043.00;4414279;32;19967;-68
2022/02/14 05:09:46;;;;;;;;;;;;;;;15.56;43.29;98045.31;4417055;32;19954;-69
2022/02/14 05:19:00;;;;;;;;;;;;;;;15.61;43.42;98067.13;4419271;32;20421;-69
2022/02/14 05:21:26;;;;;;;;;;;;;;;15.83;43.29;98061.88;4416625;32;19961;-69
2022/02/14 05:23:51;;;;;;;;;;;;;;;15.69;43.43;98057.47;4415696;32;20397;-69
2022/02/14 05:26:18;;;;;;;;;;;;;;;15.78;43.57;98047.81;4404807;32;20023;-69
2022/02/14 05:28:43;;;;;;;;;;;;;;;16.05;42.75;98062.84;4417989;32;19950;-69
2022/02/14 05:31:09;;;;;;;;;;;;;;;16.44;42.57;98063.00;4417924;32;20013;-69
2022/02/14 05:33:35;;;;;;;;;;;;;;;16.52;42.61;98061.81;4402022;32;20012;-69
2022/02/14 05:36:00;;;;;;;;;;;;;;;16.61;42.62;98052.09;4415507;32;19965;-69
2022/02/14 05:38:26;;;;;;;;;;;;;;;16.74;42.12;98071.97;4415044;32;19990;-69
2022/02/14 05:40:51;;;;;;;;;;;;;;;16.82;42.14;98070.81;4416614;32;20000;-69
2022/02/14 05:43:17;;;;;;;;;;;;;;;16.79;42.11;98063.38;4416162;32;20048;-69
2022/02/14 05:45:43;;;;;;;;;;;;;;;16.51;42.57;98068.03;4417277;32;20120;-69
2022/02/14 05:48:09;;;;;;;;;;;;;;;16.75;42.24;98070.69;4416558;32;19996;-69
2022/02/14 05:50:34;;;;;;;;;;;;;;;16.90;42.26;98071.66;4418639;32;20003;-69
2022/02/14 05:53:00;;;;;;;;;;;;;;;17.04;42.00;98092.31;4417003;32;19988;-69
2022/02/14 05:55:26;;;;;;;;;;;;;;;16.94;42.06;98102.59;4413306;32;19958;-69
2022/02/14 05:57:52;;;;;;;;;;;;;;;16.83;41.77;98112.09;4416391;32;20432;-69
2022/02/14 06:00:18;;;;;;;;;;;;;;;16.82;42.08;98107.72;4417919;32;20245;-69
2022/02/14 06:02:44;;;;;;;;;;;;;;;16.28;42.58;98121.53;4419172;32;20432;-69
2022/02/14 06:05:09;;;;;;;;;;;;;;;16.51;41.91;98122.72;4416594;32;19984;-69
2022/02/14 06:07:35;;;;;;;;;;;;;;;16.66;42.04;98130.75;4415260;32;19973;-69
2022/02/14 06:10:00;;;;;;;;;;;;;;;16.58;41.83;98136.28;4416128;32;20006;-69
2022/02/14 06:12:26;;;;;;;;;;;;;;;16.84;41.06;98127.06;4416763;32;19969;-69
2022/02/14 06:14:51;;;;;;;;;;;;;;;16.72;40.84;98131.41;4415052;32;20001;-69
2022/02/14 06:17:17;;;;;;;;;;;;;;;16.61;40.47;98135.22;4417066;32;20434;-69
2022/02/14 06:19:43;;;;;;;;;;;;;;;15.91;41.64;98128.03;4417952;32;20013;-69
2022/02/14 06:22:09;;;;;;;;;;;;;;;16.29;41.43;98134.41;4414607;32;19946;-69
2022/02/14 06:24:34;;;;;;;;;;;;;;;16.18;41.15;98137.44;4417523;32;19981;-69
2022/02/14 06:26:59;;;;;;;;;;;;;;;16.07;nan;98131.16;4419120;32;20082;-69
2022/02/14 06:29:25;;;;;;;;;;;;;;;16.28;41.11;98143.47;4419499;32;19977;-69
2022/02/14 06:31:52;;;;;;;;;;;;;;;16.17;41.17;98140.81;4403531;32;20310;-69
2022/02/14 06:34:18;;;;;;;;;;;;;;;16.17;41.34;98137.97;4423051;32;20324;-69
2022/02/14 06:36:43;;;;;;;;;;;;;;;15.95;41.62;98153.22;4418644;32;21075;-68
2022/02/14 06:39:09;;;;;;;;;;;;;;;16.02;41.08;98157.53;4420823;32;19958;-68
2022/02/14 06:41:34;;;;;;;;;;;;;;;16.22;41.19;98157.75;4415183;32;19957;-68
2022/02/14 06:44:00;;;;;;;;;;;;;;;15.63;41.88;98164.50;4403361;32;19969;-68
2022/02/14 06:46:26;;;;;;;;;;;;;;;16.04;41.49;98164.19;4417003;32;20008;-69
2022/02/14 06:48:51;;;;;;;;;;;;;;;16.21;41.51;98178.91;4416525;32;20000;-69
2022/02/14 06:51:17;;;;;;;;;;;;;;;16.32;41.74;98178.72;4415271;32;19953;-69
2022/02/14 06:53:43;;;;;;;;;;;;;;;15.99;42.33;98184.91;4421260;32;19992;-69
2022/02/14 06:56:09;;;;;;;;;;;;;;;15.65;43.34;98186.66;4416786;32;20000;-69
2022/02/14 06:58:36;;;;;;;;;;;;;;;15.99;42.66;98194.16;4418278;32;20008;-69
2022/02/14 07:01:02;;;;;;;;;;;;;;;16.08;42.47;98186.59;4419875;32;20340;-69
2022/02/14 07:03:28;;;;;;;;;;;;;;;16.35;41.86;98191.84;4421210;32;19996;-69
2022/02/14 07:05:53;;;;;;;;;;;;;;;16.39;42.17;98192.31;4417511;32;20001;-69
2022/02/14 07:08:19;;;;;;;;;;;;;;;16.45;42.03;98198.72;4418563;32;19953;-69
2022/02/14 07:10:44;;;;;;;;;;;;;;;16.79;41.37;98213.12;4417629;32;20398;-70
2022/02/14 07:13:09;;;;;;;;;;;;;;;16.58;41.59;98220.69;4418086;32;19997;-69
2022/02/14 07:15:35;;;;;;;;;;;;;;;16.35;41.92;98220.22;4418997;32;19995;-69
2022/02/14 07:18:02;;;;;;;;;;;;;;;16.36;41.53;98226.69;4419878;32;19949;-69
2022/02/14 07:20:27;;;;;;;;;;;;;;;16.26;42.16;98234.81;4419873;32;20005;-69
2022/02/14 07:22:53;;;;;;;;;;;;;;;16.04;41.98;98243.62;4418285;32;20020;-68
2022/02/14 07:25:19;;;;;;;;;;;;;;;16.21;41.70;98240.56;4417601;32;20281;-68
2022/02/14 07:27:44;;;;;;;;;;;;;;;16.12;41.57;98255.91;4417177;32;19958;-70
2022/02/14 07:30:12;;;;;;;;;;;;;;;16.19;41.71;98263.78;4417826;32;20004;-70
2022/02/14 07:32:38;;;;;;;;;;;;;;;16.22;41.66;98265.56;4417986;32;20009;-70
2022/02/14 07:35:04;;;;;;;;;;;;;;;15.86;41.89;98256.47;4416005;32;19981;-69
2022/02/14 07:37:30;;;;;;;;;;;;;;;15.93;41.66;98272.16;4404364;32;19965;-69
2022/02/14 07:39:55;;;;;;;;;;;;;;;16.18;41.25;98270.00;4419348;32;20522;-70
2022/02/14 07:42:21;;;;;;;;;;;;;;;16.23;40.85;98272.75;4414739;32;20284;-70
2022/02/14 07:44:47;;;;;;;;;;;;;;;16.53;40.57;98283.97;4418040;32;19972;-70
2022/02/14 07:47:12;;;;;;;;;;;;;;;16.19;41.01;98277.97;4420310;32;20420;-70
2022/02/14 07:49:38;;;;;;;;;;;;;;;16.08;41.14;98272.47;4417270;32;20338;-70
2022/02/14 07:52:03;;;;;;;;;;;;;;;16.08;41.47;98280.97;4416914;32;20001;-70
2022/02/14 07:54:29;;;;;;;;;;;;;;;16.40;41.32;98283.88;4417314;32;20026;-70
2022/02/14 07:56:54;;;;;;;;;;;;;;;16.43;41.10;98289.31;4415835;32;20031;-70
2022/02/14 07:59:20;;;;;;;;;;;;;;;16.10;41.49;98291.78;4416730;32;20018;-70
2022/02/14 08:01:46;;;;;;;;;;;;;;;16.36;40.94;98300.47;4419076;32;19957;-70
2022/02/14 08:04:12;;;;;;;;;;;;;;;16.58;41.05;98315.16;4417612;32;19969;-70
2022/02/14 08:06:37;;;;;;;;;;;;;;;16.74;40.64;98311.31;4413340;32;19974;-70
2022/02/14 08:09:03;;;;;;;;;;;;;;;16.72;40.51;98319.59;4417048;32;19968;-69
2022/02/14 08:11:30;;;;;;;;;;;;;;;16.49;40.12;98309.87;4419044;32;21071;-70
2022/02/14 08:13:55;;;;;;;;;;;;;;;16.12;40.91;98312.66;4415575;32;19961;-69
2022/02/14 08:16:21;;;;;;;;;;;;;;;15.00;43.59;98313.50;4417072;32;19953;-69
2022/02/14 08:18:46;;;;;;;;;;;;;;;15.49;43.14;98315.91;4420373;32;19971;-69
2022/02/14 08:21:12;;;;;;;;;;;;;;;15.69;42.94;98314.69;4419582;32;20378;-69
2022/02/14 08:23:38;;;;;;;;;;;;;;;16.09;42.33;98304.44;4417059;32;19961;-69
2022/02/14 08:26:03;;;;;;;;;;;;;;;16.29;41.75;98315.28;4414598;32;19957;-69
2022/02/14 08:28:29;;;;;;;;;;;;;;;16.52;41.38;98313.69;4419619;32;20380;-70
2022/02/14 08:30:55;;;;;;;;;;;;;;;16.75;41.07;98323.44;4412078;32;20374;-70
2022/02/14 08:33:20;;;;;;;;;;;;;;;16.74;40.57;98319.03;4417307;32;19968;-70
2022/02/14 08:35:46;;;;;;;;;;;;;;;16.63;40.28;98311.44;4415136;32;19985;-70
2022/02/14 08:38:12;;;;;;;;;;;;;;;16.60;40.34;98323.13;4420854;32;19953;-70
2022/02/14 08:40:37;;;;;;;;;;;;;;;16.53;40.47;98324.50;4416456;32;20011;-70
2022/02/14 08:43:04;;;;;;;;;;;;;;;16.50;41.04;98336.19;4414637;32;19998;-70
2022/02/14 08:45:31;;;;;;;;;;;;;;;15.88;42.06;98341.81;4416013;32;19949;-69
2022/02/14 08:47:56;;;;;;;;;;;;;;;15.90;41.78;98347.69;4415554;32;20019;-70
2022/02/14 08:50:22;;;;;;;;;;;;;;;15.70;42.62;98339.69;4415379;32;19958;-70
2022/02/14 08:52:47;;;;;;;;;;;;;;;15.56;42.93;98343.66;4415695;32;20381;-70
2022/02/14 08:55:14;;;;;;;;;;;;;;;15.63;43.03;98365.78;4415032;32;19982;-70
2022/02/14 08:57:41;;;;;;;;;;;;;;;15.37;43.50;98344.91;4412811;32;20042;-70
2022/02/14 09:00:07;;;;;;;;;;;;;;;15.53;43.48;98341.16;4418468;32;20350;-70
2022/02/14 09:02:32;;;;;;;;;;;;;;;15.14;44.14;98352.78;4416732;32;20322;-69
2022/02/14 09:04:58;;;;;;;;;;;;;;;15.19;44.51;98349.13;4414413;32;20005;-69
2022/02/14 09:07:23;;;;;;;;;;;;;;;15.66;43.86;98349.78;4412962;32;19989;-69
2022/02/14 09:09:49;;;;;;;;;;;;;;;14.97;45.02;98357.03;4411928;32;20008;-69
2022/02/14 09:12:14;;;;;;;;;;;;;;;14.93;45.59;98345.22;4414968;32;20022;-69
2022/02/14 09:14:40;;;;;;;;;;;;;;;15.02;45.22;98356.22;4418098;32;19953;-70
2022/02/14 09:17:05;;;;;;;;;;;;;;;14.92;45.28;98355.00;4413469;32;20096;-70
2022/02/14 09:19:31;;;;;;;;;;;;;;;15.14;45.16;98360.50;4416575;32;19961;-70
2022/02/14 09:21:57;;;;;;;;;;;;;;;15.34;44.64;98365.78;4415673;32;19980;-70
2022/02/14 09:24:22;;;;;;;;;;;;;;;15.32;44.70;98382.53;4410966;32;20318;-70
2022/02/14 09:26:48;;;;;;;;;;;;;;;15.07;45.38;98378.81;4416881;32;20013;-70
2022/02/14 09:29:14;;;;;;;;;;;;;;;15.19;44.68;98380.28;4413336;32;19968;-70
2022/02/14 09:31:40;;;;;;;;;;;;;;;15.04;44.63;98401.78;4416917;32;20703;-70
2022/02/14 09:34:06;;;;;;;;;;;;;;;14.88;45.27;98389.25;4417750;32;19968;-69
2022/02/14 09:36:32;;;;;;;;;;;;;;;15.19;44.58;98397.28;4414070;32;20046;-69
2022/02/14 09:38:57;;;;;;;;;;;;;;;15.38;44.34;98408.78;4416865;32;19972;-70
2022/02/14 09:41:24;;;;;;;;;;;;;;;15.53;44.16;98412.75;4413419;32;20300;-70
2022/02/14 09:43:50;;;;;;;;;;;;;;;15.63;44.29;98421.69;4416016;32;20703;-69
2022/02/14 09:46:17;;;;;;;;;;;;;;;15.69;44.47;98419.59;4420137;32;19965;-69
2022/02/14 09:48:42;;;;;;;;;;;;;;;15.94;44.12;98432.50;4415373;32;19989;-69
2022/02/14 09:51:09;;;;;;;;;;;;;;;16.05;43.69;98426.72;4416233;32;20009;-69
2022/02/14 09:53:34;;;;;;;;;;;;;;;15.85;43.49;98442.12;4413901;32;20030;-69
2022/02/14 09:56:01;;;;;;;;;;;;;;;15.33;44.14;98438.66;4414920;32;20005;-69
2022/02/14 09:58:26;;;;;;;;;;;;;;;15.32;44.14;98453.34;4419046;32;19968;-69
2022/02/14 10:00:52;;;;;;;;;;;;;;;15.26;43.92;98453.41;4418090;32;20268;-69
2022/02/14 10:03:20;;;;;;;;;;;;;;;15.11;44.73;98457.88;4415767;32;19976;-69
2022/02/14 10:05:47;;;;;;;;;;;;;;;15.04;44.56;98459.19;4418682;32;20337;-69
2022/02/14 10:08:31;;;;;;;;;;;;;;;14.75;44.99;98459.84;4415006;32;20682;-69
2022/02/14 10:13:51;;;;;;;;;;;;;;;15.52;44.32;98481.31;3947900;32;15847614;-70
2022/02/14 10:16:17;;;;;;;;;;;;;;;15.52;44.32;98481.31;4427365;32;19980;-69
2022/02/14 10:18:42;;;;;;;;;;;;;;;15.25;44.25;98483.00;4428430;32;20021;-69
2022/02/14 10:21:28;;;;;;;;;;;;;;;15.24;44.27;98484.31;4428199;32;19989;-69
2022/02/14 10:29:15;;;;;;;;;;;;;;;15.25;43.90;98521.94;3969879;32;15725100;-69
2022/02/14 10:31:42;;;;;;;;;;;;;;;15.25;43.90;98521.94;4443789;32;19985;-69
2022/02/14 10:34:08;;;;;;;;;;;;;;;14.74;44.04;98517.78;4447212;32;20406;-69
2022/02/14 10:36:36;;;;;;;;;;;;;;;14.04;45.63;98515.34;4443507;32;19961;-69
2022/02/14 10:39:10;;;;;;;;;;;;;;;14.16;45.67;98520.97;4441686;32;20005;-69
2022/02/14 10:41:36;;;;;;;;;;;;;;;14.16;45.41;98518.12;4443707;32;20027;-69
2022/02/14 10:44:06;;;;;;;;;;;;;;;14.04;46.51;98523.03;4447046;32;19965;-69
2022/02/14 10:46:32;;;;;;;;;;;;;;;14.19;45.94;98525.59;4443377;32;20339;-69
2022/02/14 10:49:00;;;;;;;;;;;;;;;14.27;46.09;98535.13;4444292;32;19991;-69
2022/02/14 10:51:25;;;;;;;;;;;;;;;14.20;45.55;98535.63;4443873;32;20000;-69
2022/02/14 10:53:54;;;;;;;;;;;;;;;14.12;45.45;98543.09;4444016;32;20639;-69
2022/02/14 10:56:19;;;;;;;;;;;;;;;14.14;44.95;98544.09;4444599;32;20275;-69
2022/02/14 10:58:46;;;;;;;;;;;;;;;14.32;45.34;98543.59;4439815;32;19992;-68
2022/02/14 11:01:12;;;;;;;;;;;;;;;13.89;45.45;98553.63;4441200;32;20342;-69
2022/02/14 11:03:38;;;;;;;;;;;;;;;14.45;44.71;98557.22;4438694;32;19996;-69
2022/02/14 11:06:03;;;;;;;;;;;;;;;14.22;45.45;98562.13;4444266;32;19966;-69
2022/02/14 11:08:32;;;;;;;;;;;;;;;14.27;45.69;98569.09;4437038;32;19993;-69
2022/02/14 11:11:00;;;;;;;;;;;;;;;14.11;45.64;98564.94;4442533;32;20014;-69
2022/02/14 11:13:28;;;;;;;;;;;;;;;14.28;45.74;98568.56;4443021;32;20087;-69
2022/02/14 11:15:54;;;;;;;;;;;;;;;14.29;45.99;98584.25;4442982;32;19971;-69
2022/02/14 11:18:24;;;;;;;;;;;;;;;14.98;45.20;98585.13;4445618;32;20017;-69
2022/02/14 11:20:50;;;;;;;;;;;;;;;14.74;44.82;98588.56;4441346;32;20377;-69
2022/02/14 11:23:17;;;;;;;;;;;;;;;14.88;44.68;98590.31;4441253;32;20019;-69
2022/02/14 11:31:08;;;;;;;;;;;;;;;15.72;43.16;98617.00;3971499;32;15724557;-69
2022/02/14 11:33:34;;;;;;;;;;;;;;;15.72;43.16;98617.00;4458962;32;20368;-69
2022/02/14 11:36:05;;;;;;;;;;;;;;;15.29;43.61;98619.53;4455668;32;20008;-69
2022/02/14 11:38:39;;;;;;;;;;;;;;;15.07;44.45;98625.25;4454508;32;19999;-69
2022/02/14 11:41:25;;;;;;;;;;;;;;;15.28;43.91;98609.47;4457234;32;19996;-69
2022/02/14 11:43:51;;;;;;;;;;;;;;;15.24;43.69;98623.16;4457920;32;20004;-70
2022/02/14 11:46:18;;;;;;;;;;;;;;;15.29;43.97;98633.69;4456585;32;20095;-70
2022/02/14 11:48:44;;;;;;;;;;;;;;;15.51;44.47;98641.34;4459245;32;20304;-70
2022/02/14 11:51:11;;;;;;;;;;;;;;;16.13;43.54;98643.28;4458178;32;20016;-70
2022/02/14 11:53:38;;;;;;;;;;;;;;;15.65;42.29;98643.09;4453299;32;19971;-70
2022/02/14 11:56:23;;;;;;;;;;;;;;;16.02;42.27;98654.75;4458844;32;19953;-70
2022/02/14 12:02:01;;;;;;;;;;;;;;;15.53;43.68;98662.19;3949276;32;15726515;-71
2022/02/14 12:20:34;;;;;;;;;;;;;;;16.05;42.16;98692.63;3952287;32;15725701;-71
2022/02/14 12:23:00;;;;;;;;;;;;;;;16.05;42.16;98692.63;4433049;32;20347;-72
2022/02/14 12:25:25;;;;;;;;;;;;;;;15.60;43.29;98698.53;4430235;32;20003;-72
2022/02/14 12:27:51;;;;;;;;;;;;;;;15.30;44.04;98702.47;4431509;32;19991;-72
2022/02/14 12:30:18;;;;;;;;;;;;;;;15.52;43.50;98722.25;4429574;32;19953;-72
2022/02/14 12:32:47;;;;;;;;;;;;;;;14.68;44.19;98728.56;4431382;32;19985;-71
2022/02/14 12:35:12;;;;;;;;;;;;;;;14.71;45.54;98730.34;4429146;32;20037;-71
2022/02/14 12:37:38;;;;;;;;;;;;;;;13.97;45.98;98716.59;4436149;32;20943;-71
2022/02/14 12:40:05;;;;;;;;;;;;;;;13.93;46.32;98740.78;4429861;32;19957;-71
2022/02/14 12:42:31;;;;;;;;;;;;;;;13.64;47.01;98741.16;4434418;32;19949;-71
2022/02/14 12:44:57;;;;;;;;;;;;;;;13.80;48.08;98744.06;4431404;32;20021;-71
2022/02/14 12:47:25;;;;;;;;;;;;;;;13.87;47.47;98749.22;4437138;32;20346;-70
2022/02/14 12:50:09;;;;;;;;;;;;;;;13.72;47.89;98750.72;4432779;32;19984;-71
2022/02/14 12:52:36;;;;;;;;;;;;;;;13.52;47.77;98760.13;4429378;32;20046;-71
2022/02/14 12:55:03;;;;;;;;;;;;;;;13.03;48.70;98765.47;4428822;32;20074;-70
2022/02/14 12:57:50;;;;;;;;;;;;;;;13.15;48.20;98772.72;4431038;32;20038;-70
2022/02/14 13:02:57;;;;;;;;;;;;;;;13.18;49.70;98791.50;3951319;32;15726497;-70
2022/02/14 13:05:23;;;;;;;;;;;;;;;13.18;49.70;98791.50;4433415;32;20364;-70
2022/02/14 13:07:48;;;;;;;;;;;;;;;13.35;51.40;98787.50;4434461;32;20000;-69
2022/02/14 13:10:14;;;;;;;;;;;;;;;13.25;51.77;98794.63;4433208;32;20004;-69
2022/02/14 13:12:40;;;;;;;;;;;;;;;12.46;50.71;98802.19;4433647;32;20421;-69
2022/02/14 13:15:06;;;;;;;;;;;;;;;12.82;50.50;98806.34;4434166;32;19972;-70
2022/02/14 13:17:32;;;;;;;;;;;;;;;12.93;50.44;98795.13;4433261;32;19998;-70
2022/02/14 13:20:00;;;;;;;;;;;;;;;13.31;50.27;98803.13;4434262;32;19961;-70
2022/02/14 13:22:30;;;;;;;;;;;;;;;13.14;49.44;98808.69;4434813;32;20240;-70
2022/02/14 13:24:58;;;;;;;;;;;;;;;13.59;49.05;98807.69;4434075;32;20009;-70
2022/02/14 13:27:25;;;;;;;;;;;;;;;13.62;48.55;98812.31;4434440;32;20908;-70
2022/02/14 13:29:52;;;;;;;;;;;;;;;13.45;48.11;98805.81;4434612;32;20030;-70
2022/02/14 13:32:19;;;;;;;;;;;;;;;13.72;47.80;98810.81;4433049;32;20003;-70
2022/02/14 13:34:48;;;;;;;;;;;;;;;13.63;47.98;98811.03;4433001;32;19953;-70
2022/02/14 13:37:14;;;;;;;;;;;;;;;13.43;48.32;98813.22;4434029;32;20248;-69
2022/02/14 13:39:40;;;;;;;;;;;;;;;13.74;47.84;98819.59;4434754;32;19996;-69
2022/02/14 13:42:06;;;;;;;;;;;;;;;13.75;47.66;98823.94;4431485;32;20347;-70
2022/02/14 13:44:32;;;;;;;;;;;;;;;13.97;47.89;98834.63;4431558;32;20330;-70
2022/02/14 13:47:14;;;;;;;;;;;;;;;13.82;47.94;98828.38;4432629;32;19969;-70
2022/02/14 13:49:40;;;;;;;;;;;;;;;14.07;47.70;98839.53;4436877;32;20302;-70
2022/02/14 13:52:06;;;;;;;;;;;;;;;14.81;47.14;98831.53;4435163;32;20360;-70
2022/02/14 13:54:32;;;;;;;;;;;;;;;15.00;46.72;98831.81;4431190;32;20099;-70
2022/02/14 13:56:58;;;;;;;;;;;;;;;15.48;45.55;98841.59;4434724;32;20272;-70
2022/02/14 13:59:24;;;;;;;;;;;;;;;15.33;45.50;98845.94;4437758;32;19986;-70
2022/02/14 14:01:51;;;;;;;;;;;;;;;15.71;44.72;98839.50;4418672;32;19953;-71
2022/02/14 14:07:04;;;;;;;;;;;;;;;16.50;43.23;98867.09;3954083;32;15725665;-71
2022/02/14 14:09:29;;;;;;;;;;;;;;;16.50;43.23;98867.09;4433103;32;20390;-71
2022/02/14 14:11:55;;;;;;;;;;;;;;;16.24;43.67;98861.75;4435167;32;20013;-71
2022/02/14 14:14:37;;;;;;;;;;;;;;;16.17;43.50;98864.34;4436117;32;19953;-71
2022/02/14 14:17:04;;;;;;;;;;;;;;;16.09;43.62;98860.50;4434559;32;19953;-71
2022/02/14 14:19:30;;;;;;;;;;;;;;;16.22;43.57;98872.84;4432481;32;19972;-70
2022/02/14 14:21:55;;;;;;;;;;;;;;;16.65;43.29;98871.13;4436941;32;20108;-70
2022/02/14 14:24:21;;;;;;;;;;;;;;;16.86;42.77;98874.34;4433278;32;19997;-70
2022/02/14 14:26:46;;;;;;;;;;;;;;;17.16;43.03;98870.28;4431663;32;20264;-70
2022/02/14 14:29:13;;;;;;;;;;;;;;;17.82;40.43;98875.38;4436698;32;19957;-70
2022/02/14 14:31:38;;;;;;;;;;;;;;;18.89;39.36;98885.72;4436753;32;19953;-70
2022/02/14 14:34:04;;;;;;;;;;;;;;;20.51;36.45;98877.47;4434240;32;20004;-70
2022/02/14 14:36:29;;;;;;;;;;;;;;;21.36;34.69;98879.41;4432461;32;20048;-70
2022/02/14 14:38:55;;;;;;;;;;;;;;;22.32;33.05;98880.03;4437179;32;20003;-70
2022/02/14 14:41:20;;;;;;;;;;;;;;;23.45;31.11;98894.88;4422761;32;19997;-71
2022/02/14 14:43:46;;;;;;;;;;;;;;;24.18;31.87;98899.72;4434891;32;20299;-71
2022/02/14 14:46:13;;;;;;;;;;;;;;;25.71;29.99;98902.97;4431911;32;20004;-70
2022/02/14 14:48:38;;;;;;;;;;;;;;;26.06;28.08;98910.37;4434266;32;20409;-70
2022/02/14 14:51:04;;;;;;;;;;;;;;;26.56;28.00;98908.94;4433137;32;19976;-70
2022/02/14 14:53:30;;;;;;;;;;;;;;;27.23;26.57;98913.94;4434063;32;20314;-70
2022/02/14 14:55:56;;;;;;;;;;;;;;;27.45;25.77;98917.91;4435255;32;20342;-70
2022/02/14 14:58:21;;;;;;;;;;;;;;;27.37;24.58;98925.91;4434223;32;20053;-71
2022/02/14 15:00:47;;;;;;;;;;;;;;;28.03;25.27;98937.06;4433944;32;19992;-70
2022/02/14 15:03:13;;;;;;;;;;;;;;;28.85;23.87;98934.09;4434552;32;19944;-70